Time;durP1;ratioP1;P1;durP2;ratioP2;P2;SDS_P1;SDS_P2;PMS_P1;PMS_P2;Temp;Humidity;BMP_temperature;BMP_pressure;BME280_temperature;BME280_humidity;BME280_pressure;Samples;Min_cycle;Max_cycle;Signal;HPM_P1;HPM_P2
2023/10/17 00:04:32;;;;;;;7.37;6.53;;;3.20;99.90;;;3.84;96.39;98171.94;10388982;28;20239;-59
2023/10/17 00:09:39;;;;;;;6.87;6.20;;;3.10;99.90;;;3.80;95.95;98175.81;10385241;28;20349;-57
2023/10/17 00:14:57;;;;;;;7.40;6.90;;;3.00;99.90;;;3.58;95.51;98173.06;10386403;28;20312;-61
2023/10/17 00:20:03;;;;;;;6.93;6.43;;;2.90;99.90;;;3.55;96.38;98161.81;10385126;28;20303;-61
2023/10/17 00:25:17;;;;;;;7.20;6.70;;;2.80;99.90;;;3.54;96.51;98160.00;10388130;28;20230;-61
2023/10/17 00:30:21;;;;;;;7.10;6.50;;;2.80;99.90;;;3.49;96.16;98144.47;10386907;28;20361;-61
2023/10/17 00:35:26;;;;;;;7.33;6.73;;;2.80;99.90;;;3.55;95.80;98121.38;10388023;28;20253;-62
2023/10/17 00:40:45;;;;;;;6.93;6.40;;;2.80;99.90;;;3.49;95.93;98121.72;10389146;28;20603;-61
2023/10/17 00:45:48;;;;;;;7.47;6.77;;;2.80;99.90;;;3.32;97.08;98110.13;10388287;28;20239;-60
2023/10/17 00:50:57;;;;;;;7.43;6.83;;;2.70;99.90;;;3.31;96.36;98097.34;10387825;28;20746;-61
2023/10/17 00:56:02;;;;;;;6.90;6.33;;;2.60;99.90;;;3.26;96.50;98084.31;10390103;28;20308;-62
2023/10/17 01:01:15;;;;;;;7.27;6.70;;;2.60;99.90;;;3.27;97.71;98082.69;10387243;28;20736;-58
2023/10/17 01:06:35;;;;;;;7.53;6.80;;;2.60;99.90;;;3.07;96.56;98078.38;10392450;28;20323;-60
2023/10/17 01:11:40;;;;;;;7.13;6.53;;;2.40;99.90;;;2.98;96.46;98085.13;10394088;28;20370;-59
2023/10/17 01:16:45;;;;;;;9.03;7.97;;;2.30;99.90;;;2.82;97.81;98078.69;10395063;28;20221;-61
2023/10/17 01:21:48;;;;;;;8.00;7.30;;;2.30;99.90;;;2.92;97.22;98067.81;10392879;28;20233;-61
2023/10/17 01:26:53;;;;;;;7.33;6.73;;;2.30;99.90;;;2.87;97.65;98071.53;10391409;28;20222;-60
2023/10/17 01:31:57;;;;;;;9.43;8.63;;;2.30;99.90;;;2.90;97.69;98064.25;10390953;28;20226;-59
2023/10/17 01:37:00;;;;;;;7.90;7.20;;;2.30;99.90;;;2.80;96.58;98071.72;10395818;28;20710;-59
2023/10/17 01:42:05;;;;;;;8.00;7.27;;;2.30;99.90;;;2.95;97.60;98063.03;10391902;28;20238;-61
2023/10/17 01:47:08;;;;;;;8.13;7.33;;;2.40;99.90;;;2.94;97.44;98068.81;10393902;28;20693;-60
2023/10/17 01:52:12;;;;;;;7.10;6.50;;;2.30;99.90;;;2.94;97.11;98071.31;10391156;28;20224;-61
2023/10/17 01:57:17;;;;;;;7.53;6.83;;;2.30;99.90;;;2.99;97.99;98070.09;10390977;28;20639;-61
2023/10/17 02:02:23;;;;;;;6.77;6.27;;;2.40;99.90;;;2.97;96.65;98084.22;10392377;28;20229;-60
2023/10/17 02:07:26;;;;;;;6.60;6.00;;;2.20;99.90;;;2.89;97.17;98083.56;10389037;28;20234;-60
2023/10/17 02:12:31;;;;;;;6.90;6.30;;;2.20;99.90;;;2.70;97.73;98075.94;10389206;28;20225;-61
2023/10/17 02:17:35;;;;;;;7.00;6.40;;;2.00;99.90;;;2.65;97.33;98082.22;10396144;28;20292;-61
2023/10/17 02:22:44;;;;;;;6.10;5.60;;;2.00;99.90;;;2.67;96.66;98074.78;10394313;28;20287;-59
2023/10/17 02:27:49;;;;;;;6.77;6.17;;;1.90;99.90;;;2.54;96.50;98076.94;10391253;28;20224;-59
2023/10/17 02:32:53;;;;;;;7.37;6.70;;;1.80;99.90;;;2.45;96.20;98089.59;10390040;28;20222;-61
2023/10/17 02:37:57;;;;;;;7.47;6.80;;;1.70;99.90;;;2.17;97.13;98089.56;10397287;28;20223;-59
2023/10/17 02:43:02;;;;;;;6.60;6.10;;;1.60;99.90;;;2.13;97.86;98085.00;10391709;28;20614;-61
2023/10/17 02:48:23;;;;;;;7.00;6.30;;;1.60;99.90;;;2.29;97.25;98078.84;10391472;28;20240;-62
2023/10/17 02:53:30;;;;;;;7.27;6.67;;;1.70;99.90;;;2.22;97.46;98083.31;10391751;28;20309;-59
2023/10/17 02:58:35;;;;;;;7.33;6.73;;;1.70;99.90;;;2.28;97.88;98087.16;10388449;28;20228;-61
2023/10/17 03:03:39;;;;;;;7.83;7.10;;;1.70;99.90;;;2.33;98.30;98096.06;10386773;28;20236;-60
2023/10/17 03:08:50;;;;;;;8.47;7.70;;;1.80;99.90;;;2.24;98.00;98094.44;10391279;28;20231;-59
2023/10/17 03:13:56;;;;;;;8.00;7.30;;;1.70;99.90;;;2.32;98.78;98094.25;10389528;28;20265;-60
2023/10/17 03:18:59;;;;;;;8.23;7.53;;;1.80;99.90;;;2.40;98.28;98093.34;10388276;28;20234;-62
2023/10/17 03:24:04;;;;;;;8.80;8.00;;;1.80;99.90;;;2.52;99.56;98084.38;10394719;28;20322;-63
2023/10/17 03:29:13;;;;;;;7.60;7.00;;;2.00;99.90;;;2.54;99.93;98087.91;10389545;28;20232;-61
2023/10/17 03:34:21;;;;;;;7.97;6.90;;;1.90;99.90;;;2.51;98.89;98069.09;10397421;28;20303;-62
2023/10/17 03:39:27;;;;;;;7.57;7.03;;;1.80;99.90;;;2.55;98.40;98069.53;10393896;28;20229;-61
2023/10/17 03:44:39;;;;;;;6.67;6.07;;;1.90;99.90;;;2.55;96.39;98069.53;10391102;28;20362;-61
2023/10/17 03:49:47;;;;;;;7.63;6.93;;;1.70;99.90;;;2.48;96.85;98062.13;10385675;28;20983;-61
2023/10/17 03:54:51;;;;;;;6.77;6.23;;;1.80;99.90;;;2.55;97.37;98064.47;10383297;28;20240;-61
2023/10/17 03:59:56;;;;;;;6.93;6.43;;;1.90;99.90;;;2.58;98.63;98067.28;10382939;28;20311;-59
2023/10/17 04:05:07;;;;;;;9.53;8.53;;;1.90;99.90;;;2.54;98.45;98067.72;10393141;28;20237;-60
2023/10/17 04:10:19;;;;;;;8.33;7.57;;;1.90;99.90;;;2.53;98.58;98065.97;10385946;28;20234;-61
2023/10/17 04:15:25;;;;;;;6.77;6.17;;;1.90;99.90;;;2.50;98.79;98060.66;10391530;28;20232;-61
2023/10/17 04:20:36;;;;;;;7.13;6.63;;;1.80;99.90;;;2.44;98.72;98065.13;10380265;28;20228;-61
2023/10/17 04:25:40;;;;;;;7.93;7.23;;;1.80;99.90;;;2.55;99.33;98059.44;10386267;28;20243;-59
2023/10/17 04:30:47;;;;;;;7.47;6.87;;;1.90;99.90;;;2.61;98.80;98049.91;10405886;28;20811;-61
2023/10/17 04:35:57;;;;;;;6.40;5.83;;;2.00;99.90;;;2.71;98.70;98049.97;10391634;28;20233;-62
2023/10/17 04:41:12;;;;;;;6.13;5.63;;;2.00;99.90;;;2.64;98.08;98044.25;10378525;28;20250;-61
2023/10/17 04:46:17;;;;;;;8.47;7.87;;;1.90;99.90;;;2.55;97.87;98034.22;10382846;28;20225;-61
2023/10/17 04:51:31;;;;;;;7.87;7.07;;;1.80;99.90;;;2.29;97.10;98023.38;10385528;28;20230;-62
2023/10/17 04:56:52;;;;;;;7.20;6.60;;;1.70;99.90;;;2.33;98.05;98016.22;10386086;28;20226;-62
2023/10/17 05:02:14;;;;;;;7.67;7.07;;;1.70;99.90;;;2.34;98.47;98014.59;10380885;28;20312;-62
2023/10/17 05:07:21;;;;;;;8.50;7.07;;;1.70;99.90;;;2.42;99.42;98016.19;10382589;28;20228;-61
2023/10/17 06:17:20;;;;;;;7.77;7.07;;;2.90;99.90;;;3.54;97.44;98029.47;10389817;28;20319;-61
2023/10/17 06:23:23;;;;;;;28.77;25.80;;;2.80;99.90;;;3.58;97.12;98041.66;10384307;28;20709;-59
2023/10/17 06:33:42;;;;;;;7.63;6.97;;;2.90;99.90;;;3.69;98.29;98050.16;10374024;28;20239;-61
2023/10/17 06:38:47;;;;;;;7.43;6.83;;;3.00;99.90;;;3.73;98.42;98047.13;10379214;28;20836;-61
2023/10/17 06:43:54;;;;;;;7.00;6.50;;;3.00;99.90;;;3.75;99.32;98048.16;10385833;28;20914;-60
2023/10/17 06:49:03;;;;;;;6.90;6.30;;;3.10;99.90;;;3.93;98.38;98046.31;10382668;28;20301;-59
2023/10/17 06:54:08;;;;;;;6.73;6.23;;;3.20;99.90;;;3.92;97.60;98052.16;10382180;28;20236;-60
2023/10/17 06:59:33;;;;;;;6.70;6.10;;;3.10;99.90;;;4.04;97.37;98063.28;10398094;28;20231;-58
2023/10/17 07:04:37;;;;;;;7.37;6.73;;;3.30;99.90;;;4.12;98.02;98048.78;10399721;28;20234;-59
2023/10/17 07:09:42;;;;;;;5.87;5.40;;;3.30;99.90;;;4.26;96.93;98047.38;10403651;28;20235;-60
2023/10/17 07:14:49;;;;;;;6.93;6.33;;;3.40;99.90;;;4.33;96.87;98047.16;10392776;28;20323;-61
2023/10/17 07:19:58;;;;;;;8.60;7.90;;;3.50;99.90;;;4.43;97.16;98044.63;10383562;28;20229;-62
2023/10/17 07:25:14;;;;;;;8.20;7.50;;;3.70;99.90;;;4.44;97.22;98037.94;10383945;28;20763;-60
2023/10/17 07:30:34;;;;;;;8.23;7.43;;;3.80;99.90;;;4.77;97.03;98037.28;10384735;28;20298;-60
2023/10/17 07:35:38;;;;;;;8.40;7.60;;;4.00;99.90;;;4.91;96.08;98033.38;10389102;28;20317;-61
2023/10/17 07:40:58;;;;;;;8.13;7.43;;;4.10;99.90;;;4.99;96.54;98034.00;10396013;28;20218;-58
2023/10/17 07:46:06;;;;;;;9.50;8.23;;;4.30;99.90;;;5.36;96.10;98035.31;10392681;28;20226;-60
2023/10/17 07:51:14;;;;;;;10.10;9.10;;;4.70;99.90;;;5.56;93.43;98035.22;10394040;28;20277;-59
2023/10/17 07:56:21;;;;;;;10.23;8.80;;;4.90;99.90;;;5.88;92.32;98031.78;10401216;28;20298;-57
2023/10/17 08:01:31;;;;;;;11.00;9.90;;;5.20;99.90;;;6.16;92.76;98031.44;10390602;28;20225;-61
2023/10/17 08:06:36;;;;;;;11.63;10.43;;;5.50;99.90;;;6.44;91.88;98026.78;10405154;28;20646;-58
2023/10/17 08:11:41;;;;;;;10.73;9.63;;;5.80;99.90;;;6.70;91.31;98024.56;10396194;28;20229;-61
2023/10/17 08:16:48;;;;;;;12.93;11.53;;;6.00;99.90;;;6.71;89.06;98021.22;10402296;28;20229;-58
2023/10/17 08:22:10;;;;;;;12.53;11.23;;;6.00;99.90;;;6.92;87.09;98019.38;10400617;28;20226;-60
2023/10/17 08:27:18;;;;;;;12.73;11.30;;;6.20;99.90;;;7.16;84.55;98012.69;10399303;28;20217;-59
2023/10/17 08:32:39;;;;;;;12.90;11.67;;;6.50;99.90;;;7.20;85.16;98008.69;10393156;28;20394;-58
2023/10/17 08:37:44;;;;;;;12.13;10.73;;;6.50;99.90;;;7.45;85.51;98003.72;10398685;28;20225;-61
2023/10/17 08:42:50;;;;;;;12.63;11.13;;;6.80;99.90;;;7.61;85.35;98001.50;10399064;28;20236;-61
2023/10/17 08:48:00;;;;;;;12.40;10.87;;;6.90;99.90;;;7.79;85.88;98003.56;10399554;28;20232;-59
2023/10/17 08:53:06;;;;;;;12.53;11.30;;;7.10;99.90;;;8.01;83.81;98001.75;10395007;28;20240;-59
2023/10/17 08:58:11;;;;;;;14.53;12.87;;;7.30;99.90;;;8.45;83.42;98005.56;10403473;28;20304;-61
2023/10/17 09:03:23;;;;;;;14.30;12.80;;;7.80;99.90;;;8.80;81.49;98013.00;10409366;28;20268;-62
2023/10/17 09:08:43;;;;;;;14.77;12.17;;;8.00;99.90;;;9.17;80.21;97995.91;10404929;28;20229;-61
2023/10/17 09:14:14;;;;;;;14.53;12.93;;;8.50;99.90;;;9.40;78.41;97991.41;10408000;28;20247;-58
2023/10/17 09:19:20;;;;;;;15.67;14.13;;;8.70;99.90;;;9.73;77.27;97985.00;10398965;28;20218;-61
2023/10/17 09:24:35;;;;;;;15.93;14.17;;;9.10;99.90;;;9.77;78.37;97988.63;10402802;28;20257;-60
2023/10/17 09:29:50;;;;;;;15.88;14.20;;;9.20;99.90;;;9.98;78.07;97989.91;10400555;28;20304;-60
2023/10/17 09:34:55;;;;;;;16.80;15.00;;;9.20;99.90;;;10.31;75.60;97983.47;10401016;28;20237;-58
2023/10/17 09:40:03;;;;;;;15.80;14.20;;;9.50;99.90;;;10.62;73.99;97982.72;10407066;28;20221;-61
2023/10/17 09:45:10;;;;;;;16.27;14.63;;;9.80;99.90;;;10.75;71.70;97972.41;10393769;28;20225;-59
2023/10/17 09:50:35;;;;;;;16.58;14.45;;;10.00;99.90;;;10.81;71.25;97970.19;10402679;28;20251;-60
2023/10/17 09:55:45;;;;;;;16.17;14.57;;;10.10;99.90;;;10.79;72.62;97970.94;10401561;28;20697;-59
2023/10/17 10:00:53;;;;;;;16.02;14.43;;;10.10;99.90;;;10.70;71.10;97968.72;10388718;28;20312;-59
2023/10/17 10:06:21;;;;;;;16.85;15.18;;;10.20;99.90;;;10.76;73.05;97961.41;10391142;28;20230;-60
2023/10/17 10:11:58;;;;;;;15.93;14.43;;;10.00;99.90;;;10.99;71.48;97966.97;10380454;28;20296;-60
2023/10/17 10:17:04;;;;;;;16.33;14.68;;;10.30;99.90;;;11.21;69.43;97967.34;10390493;28;20221;-63
2023/10/17 10:22:10;;;;;;;15.77;14.18;;;10.50;99.90;;;11.21;68.92;97963.94;10384624;28;20660;-62
2023/10/17 10:27:24;;;;;;;15.70;14.20;;;10.50;99.90;;;11.42;69.35;97966.81;10395206;28;20660;-60
2023/10/17 10:32:35;;;;;;;16.80;15.10;;;10.60;99.90;;;11.50;70.49;97961.31;10398858;28;20309;-60
2023/10/17 10:37:53;;;;;;;16.55;14.98;;;10.80;99.90;;;11.64;68.64;97967.16;10391955;28;20245;-61
2023/10/17 10:42:59;;;;;;;18.08;16.17;;;10.90;99.90;;;11.30;68.35;97958.44;10397943;28;20229;-60
2023/10/17 10:48:14;;;;;;;15.52;14.10;;;10.70;99.90;;;11.38;69.90;97965.75;10401311;28;20253;-63
2023/10/17 10:53:24;;;;;;;15.93;14.43;;;10.60;99.90;;;11.63;68.12;97965.41;10401740;28;20766;-59
2023/10/17 10:58:29;;;;;;;15.50;14.02;;;10.80;99.90;;;11.80;67.71;97962.91;10393761;28;20315;-63
2023/10/17 11:03:39;;;;;;;15.57;14.20;;;11.10;99.90;;;12.00;66.16;97957.19;10392328;28;20229;-61
2023/10/17 11:08:45;;;;;;;15.50;13.90;;;11.30;99.90;;;12.25;66.47;97946.56;10399766;28;20229;-61
2023/10/17 11:13:52;;;;;;;15.63;14.02;;;11.50;99.90;;;12.26;65.75;97947.44;10405848;28;20276;-62
2023/10/17 11:18:57;;;;;;;14.25;13.02;;;11.50;99.90;;;12.28;66.59;97940.72;10396657;28;20304;-60
2023/10/17 11:24:04;;;;;;;13.82;12.43;;;11.50;99.90;;;12.35;67.05;97935.06;10397520;28;20703;-61
2023/10/17 11:29:08;;;;;;;13.23;11.93;;;11.60;99.90;;;12.61;65.83;97929.56;10398491;28;20226;-61
2023/10/17 11:34:13;;;;;;;13.43;12.07;;;11.90;99.90;;;12.77;65.83;97926.09;10399015;28;20230;-62
2023/10/17 11:39:18;;;;;;;14.10;12.73;;;12.00;99.90;;;12.49;64.36;97925.53;10400544;28;20217;-61
2023/10/17 11:44:24;;;;;;;14.50;13.02;;;11.80;99.90;;;12.69;65.17;97917.16;10402780;28;20229;-63
2023/10/17 11:49:32;;;;;;;13.63;12.38;;;11.90;99.90;;;12.61;65.87;97921.88;10399666;28;20236;-61
2023/10/17 11:54:55;;;;;;;12.63;11.30;;;11.90;99.90;;;12.79;65.99;97905.66;10400880;28;20229;-61
2023/10/17 12:00:06;;;;;;;12.25;11.10;;;12.00;99.90;;;12.96;64.20;97909.94;10398159;28;20222;-61
2023/10/17 12:05:17;;;;;;;13.20;11.82;;;12.10;99.90;;;12.72;64.36;97899.34;10397519;28;20226;-61
2023/10/17 12:10:21;;;;;;;13.25;11.95;;;12.10;99.90;;;12.85;63.41;97895.72;10401490;28;20635;-62
2023/10/17 12:15:24;;;;;;;11.88;10.75;;;12.20;99.90;;;12.82;64.46;97893.00;10401412;28;20229;-61
2023/10/17 12:20:29;;;;;;;12.20;11.02;;;12.10;99.90;;;12.72;64.14;97888.22;10402012;28;20225;-60
2023/10/17 12:25:32;;;;;;;11.18;10.15;;;12.00;99.90;;;12.91;63.69;97884.88;10400111;28;20725;-61
2023/10/17 12:30:39;;;;;;;11.45;10.23;;;12.20;99.90;;;12.99;63.12;97879.28;10400552;28;20226;-61
2023/10/17 12:35:46;;;;;;;11.38;10.27;;;12.30;99.90;;;12.81;61.01;97876.69;10403416;28;20697;-61
2023/10/17 12:40:49;;;;;;;11.45;10.35;;;12.20;99.90;;;12.85;61.79;97864.94;10395057;28;20221;-60
2023/10/17 12:45:56;;;;;;;10.45;9.55;;;12.30;99.90;;;13.12;61.73;97859.34;10396407;28;20229;-62
2023/10/17 12:51:11;;;;;;;11.65;10.63;;;12.50;99.90;;;12.76;62.57;97843.94;10400452;28;20740;-62
2023/10/17 12:56:14;;;;;;;11.85;10.02;;;12.40;99.90;;;12.84;61.91;97848.63;10401031;28;20240;-61
2023/10/17 13:01:18;;;;;;;10.25;8.90;;;12.40;99.90;;;13.12;62.73;97846.50;10399465;28;20230;-62
2023/10/17 13:06:24;;;;;;;10.27;9.35;;;12.50;99.90;;;13.27;60.82;97844.69;10401044;28;20272;-62
2023/10/17 13:11:28;;;;;;;9.40;8.55;;;12.60;99.90;;;13.31;61.20;97836.31;10397522;28;20235;-61
2023/10/17 13:16:33;;;;;;;10.10;9.18;;;12.60;99.90;;;13.23;61.55;97835.94;10398604;28;20230;-61
2023/10/17 13:21:39;;;;;;;9.32;8.50;;;12.60;99.90;;;13.07;61.04;97836.88;10385784;28;20244;-62
2023/10/17 13:26:45;;;;;;;9.15;8.35;;;12.40;99.90;;;13.13;60.18;97835.44;10387418;28;20253;-61
2023/10/17 13:31:48;;;;;;;9.18;8.38;;;12.40;99.90;;;13.04;60.83;97821.34;10385216;28;20226;-62
2023/10/17 13:36:53;;;;;;;9.48;8.60;;;12.40;99.90;;;12.90;62.57;97817.25;10384049;28;20222;-60
2023/10/17 13:41:56;;;;;;;9.85;8.95;;;12.20;99.90;;;12.70;63.03;97818.88;10400718;28;20636;-61
2023/10/17 13:46:59;;;;;;;7.50;6.80;;;12.10;99.90;;;12.87;64.07;97827.38;10404287;28;20218;-61
2023/10/17 13:52:04;;;;;;;9.10;8.25;;;12.10;99.90;;;12.96;62.68;97822.72;10401632;28;20292;-62
2023/10/17 13:57:09;;;;;;;8.70;7.97;;;12.20;99.90;;;13.11;61.79;97816.53;10402186;28;20612;-62
2023/10/17 14:02:15;;;;;;;9.07;8.05;;;12.40;99.90;;;13.11;62.13;97816.53;10396266;28;20651;-62
2023/10/17 14:07:20;;;;;;;8.05;7.25;;;12.40;99.90;;;12.91;63.31;97824.16;10396049;28;20239;-63
2023/10/17 14:12:24;;;;;;;8.35;7.63;;;12.20;99.90;;;13.13;63.79;97815.75;10393590;28;20237;-64
2023/10/17 14:17:28;;;;;;;8.20;7.40;;;12.30;99.90;;;13.01;63.08;97804.94;10393473;28;20618;-63
2023/10/17 14:22:44;;;;;;;8.30;7.50;;;12.30;99.90;;;12.94;63.38;97813.19;10391866;28;20340;-61
2023/10/17 14:27:47;;;;;;;7.38;6.68;;;12.20;99.90;;;13.37;59.37;97805.78;10383882;28;20271;-63
2023/10/17 14:32:58;;;;;;;7.40;6.32;;;12.50;99.90;;;13.37;59.11;97800.66;10392338;28;20237;-62
2023/10/17 14:38:05;;;;;;;7.38;6.30;;;12.70;99.90;;;13.05;60.09;97789.78;10383781;28;20229;-63
2023/10/17 14:43:09;;;;;;;6.78;6.07;;;12.30;99.90;;;13.21;58.69;97782.75;10378027;28;20235;-63
2023/10/17 14:48:13;;;;;;;8.88;7.13;;;12.40;99.90;;;13.14;59.14;97783.31;10399026;28;20226;-62
2023/10/17 14:53:19;;;;;;;14.98;9.55;;;12.30;99.90;;;13.10;59.09;97799.34;10404572;28;20320;-62
2023/10/17 14:58:27;;;;;;;9.20;7.45;;;12.20;99.90;;;12.93;59.77;97784.06;10404596;28;20735;-61
2023/10/17 15:03:30;;;;;;;6.35;5.82;;;12.10;99.90;;;12.54;61.48;97776.25;10407372;28;20226;-62
2023/10/17 15:08:35;;;;;;;7.68;6.43;;;11.80;99.90;;;12.39;62.69;97783.22;10402550;28;20740;-62
2023/10/17 15:13:38;;;;;;;7.22;6.60;;;11.50;99.90;;;12.44;62.72;97789.41;10395086;28;20229;-63
2023/10/17 15:18:42;;;;;;;6.63;6.03;;;11.50;99.90;;;12.09;64.15;97795.38;10398093;28;20213;-62
2023/10/17 15:23:46;;;;;;;7.85;7.05;;;11.30;99.90;;;11.83;64.50;97791.47;10400485;28;20760;-61
2023/10/17 15:28:50;;;;;;;7.13;6.60;;;11.20;99.90;;;11.71;65.09;97797.72;10393618;28;20225;-62
2023/10/17 15:33:53;;;;;;;7.18;6.47;;;11.00;99.90;;;11.76;66.20;97799.63;10410177;28;20316;-61
2023/10/17 15:38:58;;;;;;;8.70;7.90;;;10.90;99.90;;;11.62;67.69;97798.94;10382363;28;20230;-62
2023/10/17 15:44:01;;;;;;;8.02;7.30;;;10.80;99.90;;;11.46;68.50;97800.69;10372802;28;20241;-63
2023/10/17 15:49:04;;;;;;;7.97;6.95;;;10.60;99.90;;;11.37;70.25;97800.22;10380510;28;20703;-62
2023/10/17 15:54:09;;;;;;;7.70;6.90;;;10.50;99.90;;;11.32;71.71;97798.22;10384137;28;20239;-65
2023/10/17 15:59:13;;;;;;;9.68;8.48;;;10.50;99.90;;;11.08;72.34;97808.03;10381008;28;20606;-62
2023/10/17 16:04:17;;;;;;;8.43;7.45;;;10.30;99.90;;;10.98;73.28;97814.28;10370682;28;20320;-63
2023/10/17 16:09:25;;;;;;;7.53;6.82;;;10.10;99.90;;;10.81;73.38;97816.78;10365805;28;20305;-63
2023/10/17 16:14:30;;;;;;;7.88;7.18;;;10.00;99.90;;;10.73;73.57;97815.53;10372901;28;20265;-63
2023/10/17 16:19:33;;;;;;;38.67;26.00;;;10.00;99.90;;;10.57;74.34;97825.69;10374070;28;20226;-61
2023/10/17 16:24:38;;;;;;;30.55;25.30;;;9.80;99.90;;;10.45;74.49;97823.31;10370561;28;20226;-63
2023/10/17 16:29:41;;;;;;;10.02;9.13;;;9.70;99.90;;;10.72;74.75;97829.06;10382360;28;20225;-63
2023/10/17 16:34:45;;;;;;;13.98;12.80;;;9.80;99.90;;;10.28;77.07;97827.44;10371227;28;20253;-63
2023/10/17 16:39:50;;;;;;;13.70;12.43;;;9.60;99.90;;;10.10;80.73;97831.44;10383190;28;20355;-66
2023/10/17 16:44:54;;;;;;;10.30;9.40;;;9.40;99.90;;;9.80;80.94;97836.53;10377789;28;20236;-63
2023/10/17 16:49:57;;;;;;;14.25;12.95;;;9.20;99.90;;;9.86;81.56;97848.78;10367505;28;20226;-62
2023/10/17 16:55:03;;;;;;;17.25;15.75;;;9.10;99.90;;;9.81;81.91;97843.38;10373611;28;20236;-63
2023/10/17 17:00:12;;;;;;;14.43;13.02;;;9.10;99.90;;;9.82;81.04;97851.94;10389739;28;20244;-63
2023/10/17 17:05:16;;;;;;;24.80;22.30;;;9.00;99.90;;;9.75;81.10;97848.13;10394885;28;20233;-63
2023/10/17 17:10:20;;;;;;;15.82;14.50;;;9.00;99.90;;;9.41;82.36;97853.75;10389433;28;20234;-63
2023/10/17 17:15:23;;;;;;;12.68;11.57;;;8.70;99.90;;;9.28;83.10;97841.03;10397378;28;20229;-61
2023/10/17 17:20:27;;;;;;;11.18;9.93;;;8.60;99.90;;;9.17;83.44;97848.00;10383503;28;20614;-63
2023/10/17 17:25:31;;;;;;;10.45;9.50;;;8.40;99.90;;;9.10;84.07;97848.44;10380690;28;20828;-63
2023/10/17 17:30:35;;;;;;;12.60;11.40;;;8.40;99.90;;;9.07;84.50;97837.13;10382992;28;20230;-62
2023/10/17 17:35:39;;;;;;;12.63;11.43;;;8.30;99.90;;;8.91;85.35;97836.19;10378414;28;20233;-61
2023/10/17 17:40:44;;;;;;;11.00;9.93;;;8.10;99.90;;;8.85;85.94;97843.44;10381878;28;20222;-62
2023/10/17 17:45:51;;;;;;;11.03;9.97;;;8.10;99.90;;;8.69;85.39;97827.97;10378404;28;20234;-63
2023/10/17 17:50:54;;;;;;;16.83;14.47;;;7.90;99.90;;;8.58;86.08;97832.38;10395892;28;20797;-62
2023/10/17 17:56:01;;;;;;;20.53;17.87;;;7.80;99.90;;;8.47;86.75;97841.88;10375797;28;20602;-63
2023/10/17 18:01:07;;;;;;;21.27;18.97;;;7.70;99.90;;;8.38;86.96;97843.78;10380124;28;20229;-61
2023/10/17 18:06:11;;;;;;;12.83;11.60;;;7.60;99.90;;;8.36;87.56;97835.19;10380153;28;20272;-62
2023/10/17 18:11:16;;;;;;;12.23;10.87;;;7.60;99.90;;;8.25;88.58;97838.69;10370440;28;20611;-61
2023/10/17 18:16:19;;;;;;;11.20;10.20;;;7.50;99.90;;;8.03;89.77;97833.84;10370406;28;20237;-63
2023/10/17 18:21:24;;;;;;;12.50;10.90;;;7.30;99.90;;;7.91;90.56;97836.47;10378574;28;20236;-63
2023/10/17 18:26:31;;;;;;;10.50;9.50;;;7.20;99.90;;;7.79;90.81;97831.44;10377467;28;20230;-62
2023/10/17 18:31:39;;;;;;;12.17;10.97;;;7.10;99.90;;;7.81;91.20;97818.78;10375159;28;20234;-63
2023/10/17 18:36:42;;;;;;;32.70;29.20;;;7.10;99.90;;;7.75;91.27;97823.47;10388614;28;20247;-63
2023/10/17 18:41:48;;;;;;;13.87;12.60;;;7.00;99.90;;;7.71;91.14;97821.53;10382285;28;20252;-63
2023/10/17 18:46:53;;;;;;;15.50;13.20;;;7.00;99.90;;;7.62;91.38;97820.13;10379301;28;20237;-63
2023/10/17 18:51:57;;;;;;;20.07;16.57;;;6.90;99.90;;;7.62;91.92;97816.69;10372283;28;22320;-63
2023/10/17 18:57:02;;;;;;;20.90;17.97;;;6.90;99.90;;;7.54;92.67;97818.72;10382876;28;20225;-63
2023/10/17 19:02:06;;;;;;;19.03;16.57;;;6.80;99.90;;;7.43;93.29;97819.63;10380096;28;20226;-62
2023/10/17 19:07:11;;;;;;;16.73;15.10;;;6.70;99.90;;;7.33;92.83;97807.09;10383581;28;21076;-61
2023/10/17 19:12:15;;;;;;;17.90;16.30;;;6.60;99.90;;;7.28;93.47;97808.44;10378982;28;20321;-63
2023/10/17 19:17:18;;;;;;;16.83;15.13;;;6.50;99.90;;;7.25;92.97;97814.19;10383803;28;20230;-63
2023/10/17 19:22:21;;;;;;;16.30;14.70;;;6.50;99.90;;;7.18;93.35;97807.81;10379500;28;20230;-63
2023/10/17 19:27:26;;;;;;;15.00;13.40;;;6.40;99.90;;;7.21;93.47;97809.66;10379164;28;20596;-61
2023/10/17 19:32:29;;;;;;;14.63;13.23;;;6.40;99.90;;;7.10;93.66;97806.38;10375386;28;20720;-63
2023/10/17 19:37:32;;;;;;;19.83;18.00;;;6.30;99.90;;;6.99;94.67;97804.75;10384601;28;21044;-62
2023/10/17 19:42:37;;;;;;;16.97;15.43;;;6.20;99.90;;;6.95;94.63;97805.31;10371455;28;20278;-63
2023/10/17 19:47:40;;;;;;;15.97;14.47;;;6.20;99.90;;;6.90;96.17;97801.59;10368418;28;20334;-63
2023/10/17 19:52:45;;;;;;;14.70;13.30;;;6.10;99.90;;;6.73;96.87;97796.19;10380954;28;20290;-63
2023/10/17 19:57:50;;;;;;;14.90;13.40;;;6.00;99.90;;;6.73;95.83;97798.72;10382992;28;20233;-61
2023/10/17 20:02:55;;;;;;;15.00;13.60;;;6.00;99.90;;;6.65;96.93;97791.34;10390981;28;20608;-61
2023/10/17 20:07:59;;;;;;;16.10;14.50;;;5.90;99.90;;;6.63;97.63;97793.75;10383301;28;20226;-63
2023/10/17 20:13:04;;;;;;;15.03;13.53;;;5.90;99.90;;;6.61;97.31;97785.16;10373041;28;20234;-61
2023/10/17 20:18:07;;;;;;;14.73;13.07;;;5.80;99.90;;;6.48;96.57;97778.31;10377799;28;20295;-62
2023/10/17 20:23:10;;;;;;;12.93;11.73;;;5.80;99.90;;;6.52;95.90;97781.94;10372118;28;20234;-63
2023/10/17 20:28:15;;;;;;;14.47;13.07;;;5.80;99.90;;;6.41;95.97;97780.31;10369120;28;20966;-62
2023/10/17 20:33:18;;;;;;;15.93;13.23;;;5.60;99.90;;;6.28;97.23;97766.75;10377514;28;20240;-63
2023/10/17 20:38:22;;;;;;;13.87;12.47;;;5.60;99.90;;;6.34;97.11;97760.34;10369753;28;20230;-63
2023/10/17 20:43:26;;;;;;;13.57;12.27;;;5.60;99.90;;;6.32;97.50;97766.22;10367906;28;20230;-63
2023/10/17 20:48:30;;;;;;;12.93;11.63;;;5.60;99.90;;;6.28;97.19;97766.75;10368755;28;20232;-61
2023/10/17 20:53:33;;;;;;;14.00;12.70;;;5.60;99.90;;;6.12;97.65;97768.94;10367454;28;20236;-63
2023/10/17 20:58:38;;;;;;;13.53;12.27;;;5.40;99.90;;;6.23;98.15;97770.59;10379764;28;20232;-63
2023/10/17 21:03:41;;;;;;;14.27;12.83;;;5.50;99.90;;;6.17;98.55;97766.75;10382120;28;20232;-63
2023/10/17 21:08:44;;;;;;;13.23;11.77;;;5.50;99.90;;;6.04;98.14;97763.31;10386206;28;20461;-63
2023/10/17 21:13:49;;;;;;;12.73;11.53;;;5.40;99.90;;;6.04;97.47;97754.84;10390857;28;20227;-63
2023/10/17 21:18:52;;;;;;;13.93;12.53;;;5.30;99.90;;;5.99;98.84;97743.47;10379034;28;20245;-61
2023/10/17 21:23:55;;;;;;;15.57;13.53;;;5.30;99.90;;;5.94;98.57;97732.09;10381559;28;20232;-61
2023/10/17 21:29:00;;;;;;;21.87;15.47;;;5.20;99.90;;;5.81;97.69;97727.78;10381906;28;20229;-63
2023/10/17 21:34:05;;;;;;;22.37;17.77;;;5.20;99.90;;;5.76;98.51;97726.53;10385297;28;20242;-62
2023/10/17 21:39:15;;;;;;;18.20;15.17;;;5.10;99.90;;;5.61;98.65;97729.72;10389275;28;20237;-63
2023/10/17 21:44:21;;;;;;;14.63;13.23;;;5.00;99.90;;;5.60;98.90;97727.94;10378467;28;20330;-63
2023/10/17 21:49:24;;;;;;;13.97;12.67;;;5.00;99.90;;;5.62;98.93;97731.47;10385725;28;20233;-63
2023/10/17 21:54:27;;;;;;;14.70;13.20;;;5.00;99.90;;;5.39;100.00;97729.75;10387002;28;20244;-63
2023/10/17 21:59:31;;;;;;;14.93;13.50;;;4.80;99.90;;;5.43;99.65;97729.22;10388786;28;20229;-63
2023/10/17 22:04:39;;;;;;;14.83;13.43;;;4.80;99.90;;;5.36;99.77;97719.41;10385351;28;20226;-61
2023/10/17 22:09:43;;;;;;;13.43;12.03;;;4.80;99.90;;;5.40;99.69;97728.09;10383829;28;20337;-62
2023/10/17 22:14:47;;;;;;;14.10;12.60;;;4.80;99.90;;;5.33;100.00;97714.13;10385626;28;20233;-63
2023/10/17 22:19:50;;;;;;;13.80;12.37;;;4.80;99.90;;;5.46;99.82;97698.16;10381150;28;20240;-63
2023/10/17 22:24:54;;;;;;;15.53;13.73;;;4.90;99.90;;;5.49;99.67;97692.44;10379991;28;20230;-62
2023/10/17 22:29:59;;;;;;;14.30;12.80;;;4.90;99.90;;;5.49;100.00;97694.97;10382727;28;20901;-62
2023/10/17 22:35:04;;;;;;;14.60;13.10;;;4.90;99.90;;;5.49;100.00;97694.97;10381337;28;20240;-60